Time;durP1;ratioP1;P1;durP2;ratioP2;P2;SDS_P1;SDS_P2;PMS_P1;PMS_P2;Temp;Humidity;BMP_temperature;BMP_pressure;BME280_temperature;BME280_humidity;BME280_pressure;Samples;Min_cycle;Max_cycle;Signal;HPM_P1;HPM_P2
2021/07/12 00:01:01;;;;;;;;;;;;;;;19.26;64.22;100936.70;1604964;88;20240;-73
2021/07/12 00:03:27;;;;;;;;;;;;;;;19.28;64.18;100930.92;1611706;88;20327;-73
2021/07/12 00:05:56;;;;;;;;;;;;;;;19.27;64.42;100936.62;1614069;88;20184;-73
2021/07/12 00:08:22;;;;;;;;;;;;;;;19.31;64.18;100930.77;1619982;88;20211;-73
2021/07/12 00:10:48;;;;;;;;;;;;;;;19.33;64.23;100931.55;1614110;88;20667;-73
2021/07/12 00:13:17;;;;;;;;;;;;;;;19.30;64.39;100929.92;1613991;88;20232;-73
2021/07/12 00:15:43;;;;;;;;;;;;;;;19.33;64.54;100934.17;1613614;87;20217;-73
2021/07/12 00:18:09;;;;;;;;;;;;;;;19.37;64.63;100939.66;1614154;88;20230;-73
2021/07/12 00:20:35;;;;;;;;;;;;;;;19.40;64.75;100941.69;1614160;88;20290;-73
2021/07/12 00:23:01;;;;;;;;;;;;;;;19.42;64.93;100934.59;1614155;87;20239;-73
2021/07/12 00:25:30;;;;;;;;;;;;;;;19.42;64.79;100939.84;1614016;88;20184;-73
2021/07/12 00:27:57;;;;;;;;;;;;;;;19.45;64.77;100932.28;1613980;87;20235;-73
2021/07/12 00:30:23;;;;;;;;;;;;;;;19.44;64.98;100934.52;1616323;88;20112;-73
2021/07/12 00:32:50;;;;;;;;;;;;;;;19.48;65.18;100940.01;1621036;87;20133;-73
2021/07/12 00:35:17;;;;;;;;;;;;;;;19.49;65.02;100934.69;1616445;88;20133;-73
2021/07/12 00:37:43;;;;;;;;;;;;;;;19.50;65.16;100935.08;1616418;88;20117;-73
2021/07/12 00:40:12;;;;;;;;;;;;;;;19.52;64.99;100938.97;1609012;88;20102;-73
2021/07/12 00:42:38;;;;;;;;;;;;;;;19.54;65.25;100938.90;1603572;88;20127;-74
2021/07/12 00:45:07;;;;;;;;;;;;;;;19.56;65.35;100939.67;1598922;88;20102;-74
2021/07/12 00:47:33;;;;;;;;;;;;;;;19.59;65.37;100938.22;1604476;88;20548;-74
2021/07/12 00:49:59;;;;;;;;;;;;;;;19.59;65.51;100933.82;1603790;88;20106;-74
2021/07/12 00:52:27;;;;;;;;;;;;;;;19.63;65.38;100932.75;1604858;88;20137;-74
2021/07/12 00:54:53;;;;;;;;;;;;;;;19.61;65.51;100924.11;1603666;88;20102;-74
2021/07/12 00:57:20;;;;;;;;;;;;;;;19.64;65.54;100925.27;1594266;88;20221;-73
2021/07/12 00:59:46;;;;;;;;;;;;;;;19.66;65.48;100930.44;1598836;88;20138;-73
2021/07/12 01:02:12;;;;;;;;;;;;;;;19.64;65.67;100934.45;1603982;88;20131;-73
2021/07/12 01:04:38;;;;;;;;;;;;;;;19.65;65.64;100930.05;1602479;88;20741;-73
2021/07/12 01:07:10;;;;;;;;;;;;;;;19.65;65.75;100920.88;1601730;88;20731;-73
2021/07/12 01:09:34;;;;;;;;;;;;;;;19.64;65.73;100921.80;1601484;88;20205;-73
2021/07/12 01:12:17;;;;;;;;;;;;;;;19.67;65.92;100917.71;1601748;88;20624;-73
2021/07/12 01:14:52;;;;;;;;;;;;;;;19.67;65.93;100912.00;1602902;89;20258;-73
2021/07/12 01:17:37;;;;;;;;;;;;;;;19.68;66.01;100911.08;1601466;88;20197;-73
2021/07/12 01:20:35;;;;;;;;;;;;;;;19.69;65.99;100911.92;1559103;89;20205;-73
2021/07/12 01:23:17;;;;;;;;;;;;;;;19.70;66.19;100909.23;1580378;88;20130;-73
2021/07/12 01:26:13;;;;;;;;;;;;;;;19.68;66.03;100904.52;1602065;88;20143;-73
2021/07/12 01:28:59;;;;;;;;;;;;;;;19.67;66.05;100906.75;1596301;88;20102;-73
2021/07/12 01:32:01;;;;;;;;;;;;;;;19.65;66.27;100908.60;1601454;88;20193;-73
2021/07/12 01:34:36;;;;;;;;;;;;;;;19.66;66.36;100905.52;1601384;88;20210;-73
2021/07/12 01:37:06;;;;;;;;;;;;;;;19.65;66.32;100906.44;1587608;88;20225;-73
2021/07/12 01:39:39;;;;;;;;;;;;;;;19.64;66.47;100908.67;1597551;88;20174;-73
2021/07/12 01:42:12;;;;;;;;;;;;;;;19.63;66.39;100903.05;1603026;88;20145;-73
2021/07/12 01:44:57;;;;;;;;;;;;;;;19.61;66.55;100901.80;1593916;88;20469;-73
2021/07/12 01:48:00;;;;;;;;;;;;;;;19.62;66.56;100896.95;1601378;88;20193;-73
2021/07/12 01:50:33;;;;;;;;;;;;;;;19.61;66.62;100894.39;1601211;88;20986;-73
2021/07/12 01:53:11;;;;;;;;;;;;;;;19.61;66.73;100891.31;1600969;88;20595;-73
2021/07/12 01:56:10;;;;;;;;;;;;;;;19.60;66.75;100889.61;1601172;88;20149;-73
2021/07/12 01:58:42;;;;;;;;;;;;;;;19.59;66.77;100889.69;1603182;88;20179;-73
2021/07/12 02:01:12;;;;;;;;;;;;;;;19.58;66.87;100884.05;1601072;88;20190;-73
2021/07/12 02:03:39;;;;;;;;;;;;;;;19.54;66.87;100880.73;1600874;88;20186;-73
2021/07/12 02:06:07;;;;;;;;;;;;;;;19.55;66.98;100880.27;1601013;88;20238;-73
2021/07/12 02:08:34;;;;;;;;;;;;;;;19.54;67.13;100873.33;1601434;88;20150;-73
2021/07/12 02:11:01;;;;;;;;;;;;;;;19.52;67.17;100865.98;1594438;87;20682;-73
2021/07/12 02:13:28;;;;;;;;;;;;;;;19.52;67.29;100860.28;1601149;88;20212;-73
2021/07/12 02:15:57;;;;;;;;;;;;;;;19.50;67.17;100858.16;1601002;88;20201;-73
2021/07/12 02:18:25;;;;;;;;;;;;;;;19.46;67.18;100852.68;1603146;88;20147;-73
2021/07/12 02:20:52;;;;;;;;;;;;;;;19.43;67.24;100839.25;1603594;88;20166;-73
2021/07/12 02:23:19;;;;;;;;;;;;;;;19.44;67.35;100841.41;1603136;88;20110;-73
2021/07/12 02:25:46;;;;;;;;;;;;;;;19.43;67.31;100834.47;1603488;88;20119;-73
2021/07/12 02:28:13;;;;;;;;;;;;;;;19.40;67.34;100834.63;1603103;88;20135;-73
2021/07/12 02:30:39;;;;;;;;;;;;;;;19.38;67.46;100834.69;1603355;88;20196;-73
2021/07/12 02:33:06;;;;;;;;;;;;;;;19.38;67.56;100829.91;1603566;88;20110;-73
2021/07/12 02:35:33;;;;;;;;;;;;;;;19.37;67.56;100834.30;1603326;88;20142;-73
2021/07/12 02:38:00;;;;;;;;;;;;;;;19.37;67.67;100823.81;1602963;88;20102;-73
2021/07/12 02:40:27;;;;;;;;;;;;;;;19.34;67.53;100823.97;1608020;88;20116;-73
2021/07/12 02:42:55;;;;;;;;;;;;;;;19.27;67.71;100822.56;1615699;87;20100;-73
2021/07/12 02:45:23;;;;;;;;;;;;;;;19.27;67.82;100821.26;1608137;88;20416;-74
2021/07/12 02:47:50;;;;;;;;;;;;;;;19.28;67.92;100820.80;1615750;87;20137;-74
2021/07/12 02:50:16;;;;;;;;;;;;;;;19.28;68.10;100822.10;1615804;88;20117;-74
2021/07/12 02:53:03;;;;;;;;;;;;;;;19.28;68.09;100819.02;1615667;88;20145;-74
2021/07/12 02:55:29;;;;;;;;;;;;;;;19.31;68.10;100824.11;1589547;88;20439;-74
2021/07/12 02:57:58;;;;;;;;;;;;;;;19.32;68.23;100824.97;1592370;88;20119;-74
2021/07/12 03:00:24;;;;;;;;;;;;;;;19.28;68.06;100824.27;1591742;88;20111;-74
2021/07/12 03:02:50;;;;;;;;;;;;;;;19.29;68.34;100825.96;1592289;88;20170;-74
2021/07/12 03:05:19;;;;;;;;;;;;;;;19.33;68.44;100829.28;1592157;88;20141;-73
2021/07/12 03:08:05;;;;;;;;;;;;;;;19.35;68.41;100835.30;1593936;88;20188;-73
2021/07/12 03:10:33;;;;;;;;;;;;;;;19.38;68.49;100833.84;1591907;88;20139;-73
2021/07/12 03:13:04;;;;;;;;;;;;;;;19.40;68.36;100839.41;1592587;88;20113;-73
2021/07/12 03:15:42;;;;;;;;;;;;;;;19.40;68.55;100838.55;1617640;87;20116;-73
2021/07/12 03:18:30;;;;;;;;;;;;;;;19.40;68.53;100837.24;1612327;88;20100;-73
2021/07/12 03:21:01;;;;;;;;;;;;;;;19.42;68.69;100847.20;1611695;88;20153;-73
2021/07/12 03:23:30;;;;;;;;;;;;;;;19.45;68.69;100834.78;1615438;87;20185;-73
2021/07/12 03:25:59;;;;;;;;;;;;;;;19.50;68.80;100843.27;1592057;88;20345;-73
2021/07/12 03:31:10;;;;;;;;;;;;;;;19.60;68.86;100845.02;1870892;75;20148;-73
2021/07/12 03:33:38;;;;;;;;;;;;;;;19.60;68.91;100848.10;1859049;77;20130;-73
2021/07/12 03:36:05;;;;;;;;;;;;;;;19.63;68.78;100859.30;1858974;77;20126;-73
2021/07/12 03:38:31;;;;;;;;;;;;;;;19.66;68.89;100855.67;1858721;77;20133;-73
2021/07/12 03:40:59;;;;;;;;;;;;;;;19.70;68.92;100853.28;1840644;77;20987;-74
2021/07/12 03:43:25;;;;;;;;;;;;;;;19.72;68.87;100861.45;1859556;75;20088;-74
2021/07/12 03:45:54;;;;;;;;;;;;;;;19.76;69.02;100851.63;1845242;75;20284;-74
2021/07/12 03:48:35;;;;;;;;;;;;;;;19.80;68.94;100853.17;1838627;76;20159;-74
2021/07/12 03:51:05;;;;;;;;;;;;;;;19.81;68.90;100855.72;1834609;77;20126;-74
2021/07/12 03:53:32;;;;;;;;;;;;;;;19.81;68.94;100858.80;1846263;75;20103;-74
2021/07/12 03:55:59;;;;;;;;;;;;;;;19.82;68.92;100864.44;1848129;77;20087;-74
2021/07/12 03:58:25;;;;;;;;;;;;;;;19.81;69.08;100860.97;1844245;75;20126;-74
2021/07/12 04:00:51;;;;;;;;;;;;;;;19.82;69.10;100853.95;1835560;76;20088;-74
2021/07/12 04:03:17;;;;;;;;;;;;;;;19.82;68.96;100854.80;1843704;77;20111;-74
2021/07/12 04:05:43;;;;;;;;;;;;;;;19.79;69.09;100851.47;1841196;77;20699;-74
2021/07/12 04:08:09;;;;;;;;;;;;;;;19.79;69.11;100856.72;1830915;76;20130;-74
2021/07/12 04:10:37;;;;;;;;;;;;;;;19.79;69.27;100856.26;1849557;77;20096;-74
2021/07/12 04:13:04;;;;;;;;;;;;;;;19.80;69.37;100855.34;1856959;77;20099;-74
2021/07/12 04:15:30;;;;;;;;;;;;;;;19.85;69.40;100853.79;1848722;76;20119;-74
2021/07/12 04:17:56;;;;;;;;;;;;;;;19.86;69.44;100854.64;1829694;75;20119;-74
2021/07/12 04:20:22;;;;;;;;;;;;;;;19.87;69.34;100855.88;1857502;77;20138;-74
2021/07/12 04:22:48;;;;;;;;;;;;;;;19.88;69.42;100858.03;1799433;77;300962;-74
2021/07/12 04:25:14;;;;;;;;;;;;;;;19.86;69.45;100867.30;1785355;79;20196;-74
2021/07/12 04:27:41;;;;;;;;;;;;;;;19.86;69.43;100873.01;1785332;79;20085;-74
2021/07/12 04:30:09;;;;;;;;;;;;;;;19.84;69.33;100862.59;1787310;79;20121;-74
2021/07/12 04:32:35;;;;;;;;;;;;;;;19.79;69.45;100864.13;1787352;79;20090;-74
2021/07/12 04:35:01;;;;;;;;;;;;;;;19.80;69.45;100863.67;1783515;79;20218;-74
2021/07/12 04:37:31;;;;;;;;;;;;;;;19.80;69.61;100863.67;1786079;79;20538;-74
2021/07/12 04:39:57;;;;;;;;;;;;;;;19.82;69.54;100865.30;1784084;79;20104;-73
2021/07/12 04:42:23;;;;;;;;;;;;;;;19.80;69.67;100861.05;1784619;79;20769;-74
2021/07/12 04:44:50;;;;;;;;;;;;;;;19.83;69.77;100855.18;1787152;79;20090;-74
2021/07/12 04:47:16;;;;;;;;;;;;;;;19.88;69.86;100848.39;1785397;79;20100;-74
2021/07/12 04:49:42;;;;;;;;;;;;;;;19.91;69.70;100847.38;1785820;79;20098;-73
2021/07/12 04:52:09;;;;;;;;;;;;;;;19.93;69.90;100842.91;1785190;79;20098;-74
2021/07/12 04:54:35;;;;;;;;;;;;;;;19.97;69.83;100836.11;1783460;79;20709;-74
2021/07/12 04:57:01;;;;;;;;;;;;;;;19.99;69.80;100832.94;1786069;79;20127;-74
2021/07/12 04:59:41;;;;;;;;;;;;;;;20.02;69.77;100823.59;1785047;79;20425;-74
2021/07/12 05:02:08;;;;;;;;;;;;;;;20.02;69.55;100819.66;1783156;79;20428;-74
2021/07/12 05:04:36;;;;;;;;;;;;;;;20.03;69.84;100820.05;1757251;80;20165;-74
2021/07/12 05:07:04;;;;;;;;;;;;;;;20.07;69.95;100821.58;1779974;79;20097;-74
2021/07/12 05:09:31;;;;;;;;;;;;;;;20.11;69.91;100824.44;1786601;79;20122;-73
2021/07/12 05:11:57;;;;;;;;;;;;;;;20.13;69.92;100821.73;1786521;79;20451;-73
2021/07/12 05:14:24;;;;;;;;;;;;;;;20.16;69.93;100813.23;1769285;79;20326;-74
2021/07/12 05:16:51;;;;;;;;;;;;;;;20.21;69.77;100813.45;1779618;79;20192;-74
2021/07/12 05:19:18;;;;;;;;;;;;;;;20.23;70.03;100822.95;1776622;79;20197;-74
2021/07/12 05:21:44;;;;;;;;;;;;;;;20.30;70.11;100820.81;1772751;79;20315;-74
2021/07/12 05:24:10;;;;;;;;;;;;;;;20.35;70.06;100811.76;1773211;79;20187;-74
2021/07/12 05:26:36;;;;;;;;;;;;;;;20.40;69.89;100803.67;1706743;82;20794;-74
2021/07/12 05:29:04;;;;;;;;;;;;;;;20.38;70.03;100810.31;1743062;81;20602;-74
2021/07/12 05:31:30;;;;;;;;;;;;;;;20.44;70.17;100808.67;1742944;80;20547;-75
2021/07/12 05:33:56;;;;;;;;;;;;;;;20.51;70.08;100807.03;1716681;82;20760;-75
2021/07/12 05:36:22;;;;;;;;;;;;;;;20.54;69.92;100797.20;1720861;82;20537;-75
2021/07/12 05:38:49;;;;;;;;;;;;;;;20.70;70.59;100799.84;1706452;82;20159;-75
2021/07/12 05:41:14;;;;;;;;;;;;;;;21.34;71.05;100793.56;1722063;82;20179;-75
2021/07/12 05:43:41;;;;;;;;;;;;;;;22.16;70.73;100796.56;1716928;82;20147;-75
2021/07/12 05:46:10;;;;;;;;;;;;;;;23.04;70.44;100802.80;1719153;82;20589;-75
2021/07/12 05:48:36;;;;;;;;;;;;;;;23.89;69.98;100801.53;1710463;82;20883;-75
2021/07/12 05:51:02;;;;;;;;;;;;;;;24.55;69.32;100805.68;1715089;82;20599;-75
2021/07/12 05:53:28;;;;;;;;;;;;;;;25.22;69.23;100814.50;1713354;82;20189;-74
2021/07/12 05:55:54;;;;;;;;;;;;;;;25.68;68.96;100806.61;1713849;82;20500;-74
2021/07/12 05:58:20;;;;;;;;;;;;;;;26.16;68.52;100807.75;1716959;83;20103;-74
2021/07/12 06:00:46;;;;;;;;;;;;;;;26.08;67.96;100807.50;1716920;82;20513;-74
2021/07/12 06:03:12;;;;;;;;;;;;;;;25.76;67.77;100808.20;1713100;82;20117;-74
2021/07/12 06:05:38;;;;;;;;;;;;;;;25.59;68.00;100810.77;1712562;82;20169;-74
2021/07/12 06:08:05;;;;;;;;;;;;;;;25.40;68.20;100807.84;1712817;82;20405;-74
2021/07/12 06:10:31;;;;;;;;;;;;;;;25.62;68.59;100801.75;1711099;82;20083;-74
2021/07/12 06:12:57;;;;;;;;;;;;;;;25.58;67.92;100803.78;1721267;82;20197;-74
2021/07/12 06:15:23;;;;;;;;;;;;;;;25.50;67.95;100800.02;1716504;82;20092;-74
2021/07/12 06:17:51;;;;;;;;;;;;;;;25.51;68.11;100801.71;1709395;82;20153;-74
2021/07/12 06:20:18;;;;;;;;;;;;;;;25.59;68.10;100794.88;1722196;82;20091;-74
2021/07/12 06:22:45;;;;;;;;;;;;;;;25.73;67.99;100793.38;1711351;82;20119;-74
2021/07/12 06:25:12;;;;;;;;;;;;;;;25.79;67.98;100792.55;1701649;82;20442;-74
2021/07/12 06:27:38;;;;;;;;;;;;;;;25.86;67.86;100793.77;1711921;82;20093;-74
2021/07/12 06:30:06;;;;;;;;;;;;;;;25.85;67.66;100788.95;1705262;82;20613;-75
2021/07/12 06:32:32;;;;;;;;;;;;;;;25.92;67.58;100794.62;1736748;81;20103;-75
2021/07/12 06:34:58;;;;;;;;;;;;;;;25.95;67.57;100797.88;1707913;82;20496;-73
2021/07/12 06:37:24;;;;;;;;;;;;;;;26.09;67.58;100799.91;1739388;81;20129;-74
2021/07/12 06:39:50;;;;;;;;;;;;;;;26.05;67.21;100804.61;1733820;81;20156;-74
2021/07/12 06:42:16;;;;;;;;;;;;;;;25.99;67.17;100803.78;1706125;81;20159;-74
2021/07/12 06:44:42;;;;;;;;;;;;;;;26.00;67.29;100801.47;1726855;81;20843;-74
2021/07/12 06:47:08;;;;;;;;;;;;;;;26.09;67.24;100803.41;1716693;81;20420;-74
2021/07/12 06:49:34;;;;;;;;;;;;;;;26.30;67.26;100803.53;1718401;81;20824;-74
2021/07/12 06:52:04;;;;;;;;;;;;;;;26.40;66.85;100798.39;1725029;81;20129;-74
2021/07/12 06:54:30;;;;;;;;;;;;;;;26.40;66.82;100803.20;1719548;81;20131;-74
2021/07/12 06:56:56;;;;;;;;;;;;;;;26.34;66.49;100801.04;1718604;81;20493;-74
2021/07/12 06:59:23;;;;;;;;;;;;;;;26.39;66.87;100801.52;1723963;81;20496;-74
2021/07/12 07:01:49;;;;;;;;;;;;;;;26.83;66.86;100810.36;1712191;81;20176;-74
2021/07/12 07:04:15;;;;;;;;;;;;;;;27.19;66.52;100806.52;1722478;81;20773;-74
2021/07/12 07:06:42;;;;;;;;;;;;;;;27.08;65.80;100802.09;1718234;81;20402;-74
2021/07/12 07:09:08;;;;;;;;;;;;;;;26.94;65.83;100813.83;1721161;81;20128;-74
2021/07/12 07:11:34;;;;;;;;;;;;;;;26.75;65.83;100818.09;1722957;81;20186;-74
2021/07/12 07:14:03;;;;;;;;;;;;;;;26.56;65.79;100818.72;1718073;81;20481;-74
2021/07/12 07:16:30;;;;;;;;;;;;;;;26.35;65.61;100816.83;1720425;83;20204;-74
2021/07/12 07:18:56;;;;;;;;;;;;;;;26.21;65.97;100826.79;1717152;81;20134;-74
2021/07/12 07:21:22;;;;;;;;;;;;;;;26.08;65.82;100830.03;1721756;81;20620;-74
2021/07/12 07:23:48;;;;;;;;;;;;;;;25.91;65.87;100839.30;1723457;81;20200;-74
2021/07/12 07:26:14;;;;;;;;;;;;;;;25.83;65.99;100837.72;1728043;81;20183;-74
2021/07/12 07:28:40;;;;;;;;;;;;;;;25.81;65.91;100840.48;1722506;81;20193;-73
2021/07/12 07:31:06;;;;;;;;;;;;;;;25.88;65.97;100825.81;1725632;81;20516;-73
2021/07/12 07:33:32;;;;;;;;;;;;;;;26.28;66.13;100836.80;1712029;82;20589;-73
2021/07/12 07:36:00;;;;;;;;;;;;;;;26.84;65.77;100831.46;1711956;82;20489;-73
2021/07/12 07:38:27;;;;;;;;;;;;;;;27.34;65.71;100837.12;1716451;83;20526;-73
2021/07/12 07:40:53;;;;;;;;;;;;;;;27.70;65.49;100837.20;1719879;83;20436;-73
2021/07/12 07:43:19;;;;;;;;;;;;;;;27.97;65.36;100842.00;1717554;82;20627;-73
2021/07/12 07:45:45;;;;;;;;;;;;;;;28.41;65.07;100838.17;1717656;83;20229;-74
2021/07/12 07:48:11;;;;;;;;;;;;;;;28.80;65.01;100824.96;1714552;82;20187;-74
2021/07/12 07:50:39;;;;;;;;;;;;;;;29.09;64.49;100831.22;1716172;83;20244;-73
2021/07/12 07:53:06;;;;;;;;;;;;;;;29.27;64.33;100835.34;1717136;82;20400;-73
2021/07/12 07:55:32;;;;;;;;;;;;;;;29.47;64.26;100833.05;1714935;82;20498;-74
2021/07/12 07:57:58;;;;;;;;;;;;;;;29.82;64.54;100831.09;1717656;82;20292;-74
2021/07/12 08:00:26;;;;;;;;;;;;;;;30.22;64.28;100833.52;1717333;82;20118;-74
2021/07/12 08:02:53;;;;;;;;;;;;;;;30.42;63.62;100828.95;1715903;82;20130;-74
2021/07/12 08:05:20;;;;;;;;;;;;;;;30.56;63.44;100834.30;1718523;82;20601;-74
2021/07/12 08:07:46;;;;;;;;;;;;;;;30.55;62.93;100828.61;1720114;82;20607;-74
2021/07/12 08:10:14;;;;;;;;;;;;;;;30.39;62.67;100823.91;1708578;83;20645;-74
2021/07/12 08:12:42;;;;;;;;;;;;;;;30.16;62.67;100825.25;1708684;83;20556;-74
2021/07/12 08:15:10;;;;;;;;;;;;;;;30.01;62.79;100824.91;1717717;82;20114;-74
2021/07/12 08:17:37;;;;;;;;;;;;;;;29.77;62.65;100827.17;1718129;82;20135;-74
2021/07/12 08:20:05;;;;;;;;;;;;;;;29.51;62.44;100824.29;1723497;82;20195;-74
2021/07/12 08:22:31;;;;;;;;;;;;;;;29.30;62.39;100821.24;1714204;82;20219;-74
2021/07/12 08:24:57;;;;;;;;;;;;;;;29.16;62.21;100822.15;1712810;82;20238;-73
2021/07/12 08:27:23;;;;;;;;;;;;;;;28.89;62.14;100815.70;1725343;82;20200;-74
2021/07/12 08:29:49;;;;;;;;;;;;;;;28.66;62.05;100809.73;1716604;82;20118;-74
2021/07/12 08:32:15;;;;;;;;;;;;;;;28.44;62.00;100809.97;1715212;82;20195;-74
2021/07/12 08:34:42;;;;;;;;;;;;;;;28.28;62.16;100803.81;1720950;81;20167;-74
2021/07/12 08:37:09;;;;;;;;;;;;;;;28.16;61.95;100804.84;1730185;81;20185;-74
2021/07/12 08:39:35;;;;;;;;;;;;;;;28.18;61.95;100802.89;1719951;81;20271;-74
2021/07/12 08:42:02;;;;;;;;;;;;;;;28.21;61.94;100808.44;1718961;81;20566;-74
2021/07/12 08:44:29;;;;;;;;;;;;;;;28.20;61.74;100800.95;1727701;81;20517;-74
2021/07/12 08:46:56;;;;;;;;;;;;;;;28.20;61.38;100800.95;1717721;81;20159;-74
2021/07/12 08:49:25;;;;;;;;;;;;;;;28.23;61.27;100795.88;1726452;81;20099;-74
2021/07/12 08:51:51;;;;;;;;;;;;;;;28.20;61.09;100798.77;1728097;81;20111;-74
2021/07/12 08:54:17;;;;;;;;;;;;;;;28.18;61.12;100796.25;1722326;81;20122;-73
2021/07/12 08:56:43;;;;;;;;;;;;;;;28.19;61.09;100785.13;1726071;82;20103;-73
2021/07/12 08:59:25;;;;;;;;;;;;;;;28.21;61.08;100792.02;1721499;82;20152;-73
2021/07/12 09:02:17;;;;;;;;;;;;;;;28.33;61.03;100794.11;1717935;81;20112;-73
2021/07/12 09:04:52;;;;;;;;;;;;;;;28.42;60.62;100787.98;1725762;81;20091;-73
2021/07/12 09:07:24;;;;;;;;;;;;;;;28.42;60.55;100784.48;1712261;81;20135;-73
2021/07/12 09:10:09;;;;;;;;;;;;;;;28.36;60.55;100787.67;1723678;81;20141;-73
2021/07/12 09:12:48;;;;;;;;;;;;;;;28.26;60.39;100789.80;1725369;81;20139;-73
2021/07/12 09:15:16;;;;;;;;;;;;;;;28.13;60.42;100786.50;1719721;81;20092;-73
2021/07/12 09:17:46;;;;;;;;;;;;;;;27.97;60.28;100783.51;1728139;81;20131;-73
2021/07/12 09:20:27;;;;;;;;;;;;;;;27.91;60.21;100783.55;1719952;81;20153;-73
2021/07/12 09:22:54;;;;;;;;;;;;;;;27.90;60.10;100777.88;1714795;81;20124;-73
2021/07/12 09:25:20;;;;;;;;;;;;;;;27.93;60.10;100783.42;1723814;81;20106;-74
2021/07/12 09:27:46;;;;;;;;;;;;;;;27.92;59.92;100777.75;1729163;81;20119;-73
2021/07/12 09:30:15;;;;;;;;;;;;;;;28.00;59.93;100772.13;1717987;81;20124;-73
2021/07/12 09:32:43;;;;;;;;;;;;;;;28.11;59.78;100774.31;1710449;81;20123;-73
2021/07/12 09:35:13;;;;;;;;;;;;;;;28.17;59.66;100774.62;1719915;81;20115;-73
2021/07/12 09:37:43;;;;;;;;;;;;;;;28.27;59.55;100768.88;1714814;81;20140;-73
2021/07/12 09:40:15;;;;;;;;;;;;;;;28.34;59.43;100771.36;1724978;81;20739;-74
2021/07/12 09:42:43;;;;;;;;;;;;;;;28.34;59.17;100766.04;1707709;82;20099;-74
2021/07/12 09:45:12;;;;;;;;;;;;;;;28.28;59.13;100759.09;1714818;82;20119;-74
2021/07/12 09:47:40;;;;;;;;;;;;;;;28.38;59.31;100761.30;1727055;81;20131;-73
2021/07/12 09:50:19;;;;;;;;;;;;;;;28.43;58.96;100759.06;1707997;81;20180;-73
2021/07/12 09:52:54;;;;;;;;;;;;;;;28.52;58.90;100762.73;1702750;81;20129;-74
2021/07/12 09:55:27;;;;;;;;;;;;;;;28.57;58.91;100761.34;1730199;81;20142;-74
2021/07/12 09:58:09;;;;;;;;;;;;;;;28.67;58.59;100764.00;1726290;82;20139;-74
2021/07/12 10:00:41;;;;;;;;;;;;;;;28.72;58.59;100765.76;1724990;82;20127;-73
2021/07/12 10:03:08;;;;;;;;;;;;;;;28.79;58.48;100771.38;1700090;82;20120;-73
2021/07/12 10:05:35;;;;;;;;;;;;;;;28.82;58.32;100766.64;1751027;81;20161;-73
2021/07/12 10:08:03;;;;;;;;;;;;;;;28.86;58.52;100772.05;1713601;82;20125;-73
2021/07/12 10:10:29;;;;;;;;;;;;;;;28.83;58.17;100774.14;1716775;82;20127;-73
2021/07/12 10:12:55;;;;;;;;;;;;;;;28.81;58.40;100760.09;1723807;82;20119;-73
2021/07/12 10:15:21;;;;;;;;;;;;;;;28.90;58.29;100764.13;1723917;82;20184;-73
2021/07/12 10:17:48;;;;;;;;;;;;;;;28.97;57.97;100755.10;1713179;82;20132;-73
2021/07/12 10:20:16;;;;;;;;;;;;;;;29.05;58.09;100755.73;1719860;82;20155;-73
2021/07/12 10:22:43;;;;;;;;;;;;;;;29.09;57.86;100748.66;1722980;82;20156;-73
2021/07/12 10:25:17;;;;;;;;;;;;;;;29.14;57.84;100741.06;1725670;82;20132;-73
2021/07/12 10:27:52;;;;;;;;;;;;;;;29.19;57.73;100737.48;1724059;82;20112;-74
2021/07/12 10:30:40;;;;;;;;;;;;;;;29.18;57.67;100741.62;1722547;81;20810;-74
2021/07/12 10:33:11;;;;;;;;;;;;;;;29.15;57.41;100749.89;1723573;82;20105;-74
2021/07/12 10:35:47;;;;;;;;;;;;;;;29.07;57.46;100743.97;1718901;81;20146;-74
2021/07/12 10:38:16;;;;;;;;;;;;;;;29.05;57.39;100741.09;1732839;82;20132;-74
2021/07/12 10:40:50;;;;;;;;;;;;;;;28.95;57.52;100746.41;1719150;82;20547;-73
2021/07/12 10:43:45;;;;;;;;;;;;;;;28.94;57.52;100735.41;1721575;81;20116;-73
2021/07/12 10:46:30;;;;;;;;;;;;;;;29.01;57.70;100735.70;1714326;82;20147;-73
2021/07/12 10:48:58;;;;;;;;;;;;;;;29.18;57.38;100739.80;1706680;82;20435;-74
2021/07/12 10:51:28;;;;;;;;;;;;;;;29.20;57.26;100741.83;1713571;82;20136;-74
2021/07/12 10:53:59;;;;;;;;;;;;;;;29.09;56.91;100751.32;1734336;81;20131;-73
2021/07/12 10:56:28;;;;;;;;;;;;;;;28.90;56.91;100747.32;1717847;82;20757;-73
2021/07/12 10:58:57;;;;;;;;;;;;;;;28.80;57.19;100745.95;1717291;80;20127;-73
2021/07/12 11:01:33;;;;;;;;;;;;;;;28.85;57.36;100751.73;1711018;81;20152;-73
2021/07/12 11:03:59;;;;;;;;;;;;;;;28.90;57.30;100751.31;1708563;82;20097;-73
2021/07/12 11:06:27;;;;;;;;;;;;;;;28.84;56.95;100752.70;1730726;82;20095;-73
2021/07/12 11:08:55;;;;;;;;;;;;;;;28.65;56.98;100754.82;1720530;82;20123;-73
2021/07/12 11:11:24;;;;;;;;;;;;;;;28.53;56.94;100749.78;1749749;81;20122;-73
2021/07/12 11:13:52;;;;;;;;;;;;;;;28.34;57.00;100744.77;1718098;82;20122;-74
2021/07/12 11:16:21;;;;;;;;;;;;;;;28.21;57.09;100737.97;1713639;82;20122;-74
2021/07/12 11:18:47;;;;;;;;;;;;;;;28.09;57.20;100727.07;1739841;81;20100;-74
2021/07/12 11:21:15;;;;;;;;;;;;;;;27.98;57.36;100712.94;1733405;81;20217;-74
2021/07/12 11:23:46;;;;;;;;;;;;;;;27.95;57.54;100717.67;1733962;81;20129;-73
2021/07/12 11:26:27;;;;;;;;;;;;;;;27.91;57.43;100714.44;1710019;82;20157;-73
2021/07/12 11:28:58;;;;;;;;;;;;;;;27.99;57.62;100710.63;1706153;82;20105;-73
2021/07/12 11:31:55;;;;;;;;;;;;;;;28.08;57.43;100702.79;1742282;81;20136;-74
2021/07/12 11:34:33;;;;;;;;;;;;;;;28.13;57.50;100693.44;1708600;83;20101;-73
2021/07/12 11:37:05;;;;;;;;;;;;;;;28.17;57.17;100688.20;1738295;81;20520;-73
2021/07/12 11:39:33;;;;;;;;;;;;;;;28.17;57.24;100688.20;1743635;81;20131;-73
2021/07/12 11:42:15;;;;;;;;;;;;;;;28.21;57.14;100684.78;1714537;82;20142;-74
2021/07/12 11:44:49;;;;;;;;;;;;;;;28.20;57.14;100687.09;1715499;82;20121;-74
2021/07/12 11:47:33;;;;;;;;;;;;;;;28.24;57.11;100675.23;1771859;79;20104;-74
2021/07/12 11:50:03;;;;;;;;;;;;;;;28.21;57.01;100674.14;1773478;79;20116;-74
2021/07/12 11:52:30;;;;;;;;;;;;;;;28.16;57.17;100677.21;1784951;79;20100;-74
2021/07/12 11:55:05;;;;;;;;;;;;;;;28.14;57.09;100681.82;1785916;79;20136;-73
2021/07/12 11:57:32;;;;;;;;;;;;;;;28.19;57.13;100678.75;1780416;79;20100;-74
2021/07/12 11:59:58;;;;;;;;;;;;;;;28.20;57.09;100677.29;1768233;80;20098;-74
2021/07/12 12:02:24;;;;;;;;;;;;;;;28.28;57.13;100672.66;1782527;79;20104;-73
2021/07/12 12:04:55;;;;;;;;;;;;;;;28.36;57.00;100670.15;1790584;79;20112;-74
2021/07/12 12:07:38;;;;;;;;;;;;;;;28.36;56.90;100666.65;1785403;79;20092;-73
2021/07/12 12:10:16;;;;;;;;;;;;;;;28.31;57.04;100663.91;1784822;79;20113;-74
2021/07/12 12:12:53;;;;;;;;;;;;;;;28.33;56.98;100663.77;1784719;79;20100;-74
2021/07/12 12:15:28;;;;;;;;;;;;;;;28.30;56.71;100659.56;1776260;79;20132;-73
2021/07/12 12:17:58;;;;;;;;;;;;;;;28.28;57.05;100655.37;1785380;79;20092;-73
2021/07/12 12:20:31;;;;;;;;;;;;;;;28.23;57.16;100660.25;1787757;79;20455;-73
2021/07/12 12:23:03;;;;;;;;;;;;;;;28.20;57.15;100657.34;1778135;79;20090;-74
2021/07/12 12:25:33;;;;;;;;;;;;;;;28.16;57.22;100659.08;1776078;79;20148;-74
2021/07/12 12:27:59;;;;;;;;;;;;;;;28.10;57.31;100650.33;1774119;79;20515;-74
2021/07/12 12:30:25;;;;;;;;;;;;;;;28.07;57.21;100650.63;1779113;79;20165;-74
2021/07/12 12:32:53;;;;;;;;;;;;;;;28.06;57.05;100637.82;1768829;80;20196;-75
2021/07/12 12:35:21;;;;;;;;;;;;;;;28.09;57.20;100638.01;1776818;79;20192;-74
2021/07/12 12:37:47;;;;;;;;;;;;;;;28.14;57.08;100636.63;1768978;79;20124;-74
2021/07/12 12:40:23;;;;;;;;;;;;;;;28.17;57.01;100628.86;1783066;79;20092;-74
2021/07/12 12:42:52;;;;;;;;;;;;;;;28.17;57.08;100611.09;1784204;79;20573;-74
2021/07/12 12:45:29;;;;;;;;;;;;;;;28.19;57.03;100610.46;1782505;79;20104;-74
2021/07/12 12:47:57;;;;;;;;;;;;;;;28.24;56.92;100603.43;1776698;79;20104;-74
2021/07/12 12:50:24;;;;;;;;;;;;;;;28.25;56.94;100601.12;1708830;82;20152;-74